ELY971 OMDB-LLBG
Flight info
| Callsign | ELY971 |
|---|---|
| Flight time | N/A |
| Altitude | 40000 |
| Route | SENPA N571 ALPOB L768 AAR V45 TRF R652 OBROD Q163 GENEX L53 QAA DCT OSAMA DCT RALNA N134 SALAM |
| Aircraft | B772/H-SDE2E3FGHIJ1J4J5LM1OP2RVWXYZ/LB1D1 |
Departure
| Time | 2026-04-26 17:52 |
|---|---|
| Airport | Dubai International Airport (OMDB) |
Arrival
| Time | N/A |
|---|---|
| Airport | Ben Gurion International Airport (LLBG) |
| Time | Latitude | Longitude | Altitude | Speed | Heading |
|---|---|---|---|---|---|
| 2026-04-26 17:34 | 25.25848 | 55.34572 | 31 ft | 0 kts | 211° |
| 2026-04-26 17:40 | 25.25850 | 55.34573 | 26 ft | 2 kts | 211° |
| 2026-04-26 17:41 | 25.25872 | 55.34588 | 31 ft | 4 kts | 211° |
| 2026-04-26 17:41 | 25.25894 | 55.34603 | 31 ft | 2 kts | 211° |
| 2026-04-26 17:41 | 25.25914 | 55.34614 | 31 ft | 4 kts | 193° |
| 2026-04-26 17:41 | 25.25936 | 55.34614 | 31 ft | 4 kts | 142° |
| 2026-04-26 17:42 | 25.25951 | 55.34593 | 31 ft | 4 kts | 121° |
| 2026-04-26 17:42 | 25.25964 | 55.34570 | 31 ft | 2 kts | 121° |
| 2026-04-26 17:42 | 25.25964 | 55.34569 | 31 ft | 0 kts | 121° |
| 2026-04-26 17:44 | 25.25952 | 55.34592 | 31 ft | 7 kts | 122° |
| 2026-04-26 17:44 | 25.25914 | 55.34658 | 31 ft | 12 kts | 122° |
| 2026-04-26 17:44 | 25.25871 | 55.34734 | 30 ft | 12 kts | 121° |
| 2026-04-26 17:44 | 25.25829 | 55.34810 | 30 ft | 12 kts | 122° |
| 2026-04-26 17:45 | 25.25778 | 55.34899 | 28 ft | 15 kts | 123° |
| 2026-04-26 17:45 | 25.25723 | 55.35000 | 30 ft | 16 kts | 121° |
| 2026-04-26 17:45 | 25.25672 | 55.35103 | 28 ft | 16 kts | 107° |
| 2026-04-26 17:45 | 25.25730 | 55.35188 | 30 ft | 16 kts | 30° |
| 2026-04-26 17:46 | 25.25825 | 55.35251 | 28 ft | 17 kts | 31° |
| 2026-04-26 17:46 | 25.25923 | 55.35318 | 29 ft | 17 kts | 31° |
| 2026-04-26 17:46 | 25.25998 | 55.35411 | 30 ft | 17 kts | 68° |
| 2026-04-26 17:46 | 25.25994 | 55.35542 | 30 ft | 18 kts | 112° |
| 2026-04-26 17:47 | 25.25926 | 55.35669 | 29 ft | 20 kts | 122° |
| 2026-04-26 17:47 | 25.25877 | 55.35756 | 30 ft | 20 kts | 122° |
| 2026-04-26 17:47 | 25.25777 | 55.35932 | 27 ft | 22 kts | 123° |
| 2026-04-26 17:47 | 25.25689 | 55.36089 | 27 ft | 24 kts | 122° |
| 2026-04-26 17:48 | 25.25599 | 55.36248 | 27 ft | 24 kts | 122° |
| 2026-04-26 17:48 | 25.25511 | 55.36408 | 27 ft | 24 kts | 123° |
| 2026-04-26 17:48 | 25.25419 | 55.36567 | 26 ft | 24 kts | 121° |
| 2026-04-26 17:48 | 25.25332 | 55.36725 | 29 ft | 24 kts | 122° |
| 2026-04-26 17:49 | 25.25242 | 55.36884 | 26 ft | 24 kts | 123° |
| 2026-04-26 17:49 | 25.25153 | 55.37044 | 27 ft | 24 kts | 122° |
| 2026-04-26 17:49 | 25.25063 | 55.37203 | 28 ft | 24 kts | 122° |
| 2026-04-26 17:49 | 25.24975 | 55.37358 | 28 ft | 24 kts | 121° |
| 2026-04-26 17:50 | 25.24886 | 55.37516 | 28 ft | 24 kts | 122° |
| 2026-04-26 17:50 | 25.24798 | 55.37674 | 27 ft | 24 kts | 122° |
| 2026-04-26 17:50 | 25.24709 | 55.37830 | 27 ft | 20 kts | 122° |
| 2026-04-26 17:50 | 25.24635 | 55.37962 | 27 ft | 19 kts | 122° |
| 2026-04-26 17:51 | 25.24656 | 55.38064 | 28 ft | 15 kts | 33° |
| 2026-04-26 17:51 | 25.24752 | 55.38102 | 30 ft | 15 kts | 340° |
| 2026-04-26 17:51 | 25.24859 | 55.37929 | 29 ft | 60 kts | 301° |
| 2026-04-26 17:51 | 25.25263 | 55.37201 | 37 ft | 158 kts | 302° |
| 2026-04-26 17:52 | 25.25879 | 55.36090 | 900 ft | 168 kts | 300° |
| 2026-04-26 17:52 | 25.26463 | 55.35037 | 2462 ft | 160 kts | 301° |
| 2026-04-26 17:52 | 25.27038 | 55.34001 | 3266 ft | 155 kts | 302° |
| 2026-04-26 17:52 | 25.27644 | 55.32915 | 3614 ft | 180 kts | 302° |
| 2026-04-26 17:53 | 25.28351 | 55.31648 | 3834 ft | 207 kts | 302° |
| 2026-04-26 17:53 | 25.29157 | 55.30197 | 4043 ft | 234 kts | 300° |
| 2026-04-26 17:53 | 25.29677 | 55.28437 | 4409 ft | 250 kts | 277° |
| 2026-04-26 17:54 | 25.29278 | 55.24544 | 2952 ft | 304 kts | 253° |